Time;durP1;ratioP1;P1;durP2;ratioP2;P2;SDS_P1;SDS_P2;PMS_P1;PMS_P2;Temp;Humidity;BMP_temperature;BMP_pressure;BME280_temperature;BME280_humidity;BME280_pressure;Samples;Min_cycle;Max_cycle;Signal;HPM_P1;HPM_P2
2021/12/03 00:01:48;;;;;;;0.00;0.00;;;;;17.30;100629.00;;;;4968089;28;20073;-70
2021/12/03 00:04:31;;;;;;;0.00;0.00;;;;;17.10;100628.00;;;;4965873;28;20049;-71
2021/12/03 00:07:01;;;;;;;0.00;0.00;;;;;17.00;100619.00;;;;4967746;28;20520;-71
2021/12/03 00:09:36;;;;;;;0.00;0.00;;;;;17.00;100615.00;;;;4968010;28;20042;-72
2021/12/03 00:12:08;;;;;;;0.30;0.30;;;;;17.00;100623.00;;;;4967617;28;20047;-74
2021/12/03 00:14:37;;;;;;;0.40;0.40;;;;;16.90;100630.00;;;;4966913;28;20047;-72
2021/12/03 00:17:06;;;;;;;0.00;0.00;;;;;17.00;100631.00;;;;4967703;28;20051;-72
2021/12/03 00:19:37;;;;;;;0.00;0.00;;;;;17.00;100627.00;;;;4967426;28;20058;-71
2021/12/03 00:22:06;;;;;;;0.00;0.00;;;;;16.90;100607.00;;;;4950360;28;20046;-70
2021/12/03 00:24:38;;;;;;;0.00;0.00;;;;;16.80;100626.00;;;;4967777;28;20042;-72
2021/12/03 00:27:21;;;;;;;0.00;0.00;;;;;16.80;100624.00;;;;4967505;28;20082;-70
2021/12/03 00:29:50;;;;;;;0.00;0.00;;;;;16.90;100644.00;;;;4965728;28;20039;-70
2021/12/03 00:32:19;;;;;;;0.22;0.08;;;;;17.00;100621.00;;;;4967245;28;20562;-72
2021/12/03 00:34:49;;;;;;;1.20;0.40;;;;;17.20;100630.00;;;;4967807;28;20615;-72
2021/12/03 00:37:19;;;;;;;22.48;1.35;;;;;17.40;100615.00;;;;4967780;28;20098;-69
2021/12/03 00:39:49;;;;;;;0.00;0.00;;;;;17.30;100633.00;;;;4967633;28;20051;-72
2021/12/03 00:42:19;;;;;;;0.35;0.35;;;;;17.40;100639.00;;;;4967590;28;20047;-71
2021/12/03 00:44:52;;;;;;;0.00;0.00;;;;;17.40;100619.00;;;;4950675;28;20057;-70
2021/12/03 00:47:27;;;;;;;0.17;0.17;;;;;17.30;100611.00;;;;4967573;28;20534;-72
2021/12/03 00:49:59;;;;;;;0.00;0.00;;;;;17.10;100629.00;;;;4967863;28;20403;-72
2021/12/03 00:52:28;;;;;;;0.13;0.13;;;;;17.00;100636.00;;;;4967315;28;20518;-71
2021/12/03 00:54:58;;;;;;;0.10;0.10;;;;;16.90;100628.00;;;;4966692;28;20039;-71
2021/12/03 00:57:27;;;;;;;0.00;0.00;;;;;16.80;100628.00;;;;4967687;28;20081;-69
2021/12/03 00:59:57;;;;;;;0.00;0.00;;;;;16.70;100636.00;;;;4966933;28;20461;-71
2021/12/03 01:02:27;;;;;;;10.68;9.75;;;;;16.60;100626.00;;;;4966990;28;20047;-71
2021/12/03 01:04:57;;;;;;;0.00;0.00;;;;;16.50;100624.00;;;;4950602;28;20510;-72
2021/12/03 01:07:27;;;;;;;0.00;0.00;;;;;16.40;100608.00;;;;4950439;28;20046;-70
2021/12/03 01:09:56;;;;;;;0.00;0.00;;;;;16.30;100616.00;;;;4967443;28;20514;-69
2021/12/03 01:12:39;;;;;;;0.00;0.00;;;;;16.20;100639.00;;;;4965321;28;20061;-72
2021/12/03 01:15:15;;;;;;;0.80;0.30;;;;;16.10;100645.00;;;;4949296;28;20054;-70
2021/12/03 01:17:45;;;;;;;16.02;14.90;;;;;16.00;100657.00;;;;4965734;28;20534;-71
2021/12/03 01:20:15;;;;;;;0.00;0.00;;;;;15.90;100655.00;;;;4965557;28;20042;-71
2021/12/03 01:22:47;;;;;;;0.00;0.00;;;;;15.90;100651.00;;;;4966626;28;20051;-69
2021/12/03 01:25:18;;;;;;;0.00;0.00;;;;;15.80;100660.00;;;;4967261;28;20038;-72
2021/12/03 01:27:49;;;;;;;0.00;0.00;;;;;15.90;100660.00;;;;4970822;28;20051;-71
2021/12/03 01:30:20;;;;;;;;;;;;;15.90;100661.00;;;;4971469;28;20039;-71
2021/12/03 01:32:56;;;;;;;0.00;0.00;;;;;15.90;100656.00;;;;4971303;28;19922;-71
2021/12/03 01:35:27;;;;;;;0.35;0.35;;;;;15.90;100660.00;;;;4970762;28;20413;-72
2021/12/03 01:38:11;;;;;;;0.00;0.00;;;;;15.90;100665.00;;;;4971178;28;20058;-70
2021/12/03 01:40:54;;;;;;;0.03;0.03;;;;;16.10;100653.00;;;;4968979;28;20598;-72
2021/12/03 01:43:39;;;;;;;0.00;0.00;;;;;16.30;100650.00;;;;4970812;28;20517;-71
2021/12/03 01:46:11;;;;;;;0.00;0.00;;;;;16.40;100642.00;;;;4970253;28;20090;-70
2021/12/03 01:48:40;;;;;;;;;;;;;16.50;100659.00;;;;4970942;28;20126;-70
2021/12/03 01:51:24;;;;;;;0.00;0.00;;;;;16.60;100657.00;;;;4970343;28;19928;-70
2021/12/03 01:53:55;;;;;;;0.25;0.25;;;;;16.70;100646.00;;;;4969889;28;20437;-69
2021/12/03 01:56:34;;;;;;;0.00;0.00;;;;;16.80;100660.00;;;;4970826;28;20544;-70
2021/12/03 01:59:03;;;;;;;;;;;;;16.70;100657.00;;;;4970783;28;21150;-70
2021/12/03 02:01:34;;;;;;;0.00;0.00;;;;;16.70;100661.00;;;;4969830;28;20389;-70
2021/12/03 02:04:08;;;;;;;0.00;0.00;;;;;16.70;100668.00;;;;4968866;28;20145;-70
2021/12/03 02:06:38;;;;;;;0.00;0.00;;;;;16.60;100638.00;;;;4970047;28;20735;-69
2021/12/03 02:09:08;;;;;;;0.00;0.00;;;;;16.60;100659.00;;;;4969338;28;20043;-70
2021/12/03 02:11:41;;;;;;;0.65;0.43;;;;;16.60;100657.00;;;;4970269;28;20074;-69
2021/12/03 02:14:10;;;;;;;0.00;0.00;;;;;16.50;100664.00;;;;4969667;28;20062;-70
2021/12/03 02:16:53;;;;;;;0.00;0.00;;;;;16.60;100634.00;;;;4968951;28;20529;-69
2021/12/03 02:19:22;;;;;;;0.00;0.00;;;;;16.70;100653.00;;;;4968765;28;20072;-70
2021/12/03 02:21:52;;;;;;;0.05;0.05;;;;;16.70;100656.00;;;;4969700;28;20050;-71
2021/12/03 02:24:22;;;;;;;0.00;0.00;;;;;16.70;100657.00;;;;4970382;28;20042;-70
2021/12/03 02:26:52;;;;;;;0.00;0.00;;;;;16.60;100632.00;;;;4937098;28;20054;-70
2021/12/03 02:29:23;;;;;;;0.00;0.00;;;;;16.60;100628.00;;;;4969216;28;20070;-70
2021/12/03 02:31:54;;;;;;;0.00;0.00;;;;;16.70;100644.00;;;;4969833;28;20131;-70
2021/12/03 02:34:24;;;;;;;0.00;0.00;;;;;16.50;100631.00;;;;4969854;28;20102;-69
2021/12/03 02:36:53;;;;;;;0.00;0.00;;;;;16.40;100620.00;;;;4968773;28;20109;-69
2021/12/03 02:39:22;;;;;;;0.08;0.08;;;;;16.40;100610.00;;;;4968859;28;20414;-69
2021/12/03 02:41:52;;;;;;;0.00;0.00;;;;;16.50;100620.00;;;;4952884;28;20051;-70
2021/12/03 02:44:21;;;;;;;0.00;0.00;;;;;16.60;100626.00;;;;4969386;28;20090;-71
2021/12/03 02:46:51;;;;;;;9.75;0.20;;;;;16.60;100633.00;;;;4969789;28;20482;-70
2021/12/03 02:49:20;;;;;;;0.00;0.00;;;;;16.60;100625.00;;;;4968946;28;20450;-71
2021/12/03 02:51:50;;;;;;;0.00;0.00;;;;;16.40;100609.00;;;;4969211;28;20047;-70
2021/12/03 02:54:19;;;;;;;0.30;0.30;;;;;16.50;100598.00;;;;4968853;28;20580;-71
2021/12/03 02:56:48;;;;;;;0.00;0.00;;;;;16.50;100622.00;;;;4967785;28;20046;-70
2021/12/03 02:59:18;;;;;;;0.00;0.00;;;;;16.60;100623.00;;;;4969936;28;20047;-70
2021/12/03 03:01:49;;;;;;;0.00;0.00;;;;;16.60;100618.00;;;;4968955;28;20098;-70
2021/12/03 03:04:20;;;;;;;0.00;0.00;;;;;16.50;100597.00;;;;4968789;28;20043;-70
2021/12/03 03:06:50;;;;;;;0.00;0.00;;;;;16.20;100597.00;;;;4968830;28;20101;-71
2021/12/03 03:09:19;;;;;;;0.00;0.00;;;;;16.00;100606.00;;;;4969152;28;20042;-71
2021/12/03 03:11:49;;;;;;;0.00;0.00;;;;;15.90;100626.00;;;;4968986;28;20075;-71
2021/12/03 03:14:18;;;;;;;0.00;0.00;;;;;15.80;100603.00;;;;4969358;28;20113;-71
2021/12/03 03:16:48;;;;;;;0.00;0.00;;;;;15.80;100601.00;;;;4968694;28;20508;-71
2021/12/03 03:19:32;;;;;;;0.00;0.00;;;;;15.90;100601.00;;;;4965786;28;20051;-72
2021/12/03 03:22:01;;;;;;;0.00;0.00;;;;;15.90;100603.00;;;;4969239;28;20046;-71
2021/12/03 03:24:31;;;;;;;0.00;0.00;;;;;16.00;100572.00;;;;4968569;28;20162;-71
2021/12/03 03:27:01;;;;;;;0.00;0.00;;;;;16.10;100590.00;;;;4968160;28;20051;-71
2021/12/03 03:29:31;;;;;;;2.97;0.75;;;;;15.90;100582.00;;;;4969207;28;20061;-70
2021/12/03 03:32:01;;;;;;;0.00;0.00;;;;;16.00;100595.00;;;;4969127;28;20476;-72
2021/12/03 03:34:31;;;;;;;0.10;0.10;;;;;16.10;100588.00;;;;4969000;28;20494;-72
2021/12/03 03:37:00;;;;;;;0.00;0.00;;;;;16.20;100578.00;;;;4968382;28;20035;-72
2021/12/03 03:39:30;;;;;;;0.10;0.10;;;;;16.20;100563.00;;;;4968172;28;20042;-71
2021/12/03 03:42:00;;;;;;;0.00;0.00;;;;;16.10;100566.00;;;;4968391;28;20089;-71
2021/12/03 03:44:29;;;;;;;0.00;0.00;;;;;16.10;100569.00;;;;4968484;28;20050;-71
2021/12/03 03:47:01;;;;;;;0.00;0.00;;;;;16.10;100545.00;;;;4968466;28;20058;-71
2021/12/03 03:49:31;;;;;;;0.15;0.10;;;;;16.00;100542.00;;;;4968407;28;20127;-70
2021/12/03 03:52:02;;;;;;;0.00;0.00;;;;;16.10;100549.00;;;;4967573;28;20472;-71
2021/12/03 03:54:33;;;;;;;0.00;0.00;;;;;16.20;100533.00;;;;4968951;28;20139;-72
2021/12/03 03:57:04;;;;;;;0.00;0.00;;;;;16.10;100539.00;;;;4968424;28;20526;-70
2021/12/03 03:59:33;;;;;;;0.00;0.00;;;;;16.00;100553.00;;;;4967119;28;20051;-71
2021/12/03 04:02:02;;;;;;;0.00;0.00;;;;;16.00;100512.00;;;;4968130;28;20117;-70
2021/12/03 04:04:52;;;;;;;0.00;0.00;;;;;16.00;100526.00;;;;4968312;28;20101;-71
2021/12/03 04:07:23;;;;;;;0.00;0.00;;;;;16.10;100511.00;;;;4968458;28;20042;-70
2021/12/03 04:09:53;;;;;;;0.00;0.00;;;;;16.10;100523.00;;;;4968012;28;20045;-71
2021/12/03 04:12:22;;;;;;;0.00;0.00;;;;;16.10;100500.00;;;;4951148;28;20426;-72
2021/12/03 04:14:52;;;;;;;0.00;0.00;;;;;16.10;100519.00;;;;4968298;28;20043;-71
2021/12/03 04:17:21;;;;;;;0.75;0.75;;;;;16.00;100511.00;;;;4967999;28;20047;-70
2021/12/03 04:19:55;;;;;;;0.00;0.00;;;;;16.00;100495.00;;;;4968281;28;20150;-70
2021/12/03 04:22:25;;;;;;;0.00;0.00;;;;;16.00;100494.00;;;;4968084;28;20701;-72
2021/12/03 04:24:58;;;;;;;0.00;0.00;;;;;15.90;100505.00;;;;4968554;28;20066;-71
2021/12/03 04:27:30;;;;;;;0.00;0.00;;;;;16.00;100513.00;;;;4968457;28;20126;-72
2021/12/03 04:30:00;;;;;;;5.57;1.55;;;;;16.00;100499.00;;;;4968454;28;20054;-71
2021/12/03 04:32:30;;;;;;;0.00;0.00;;;;;15.90;100501.00;;;;4967893;28;20174;-70
2021/12/03 04:34:59;;;;;;;0.00;0.00;;;;;15.90;100482.00;;;;4967931;28;20078;-70
2021/12/03 04:37:28;;;;;;;0.00;0.00;;;;;15.90;100495.00;;;;4967658;28;20059;-71
2021/12/03 04:39:58;;;;;;;0.00;0.00;;;;;16.00;100486.00;;;;4967058;28;20451;-70
2021/12/03 04:42:27;;;;;;;1.95;0.75;;;;;15.90;100483.00;;;;4967523;28;20058;-71
2021/12/03 04:45:08;;;;;;;0.00;0.00;;;;;15.90;100495.00;;;;4967830;28;20054;-71
2021/12/03 04:47:38;;;;;;;0.00;0.00;;;;;15.90;100499.00;;;;4967290;28;20066;-71
2021/12/03 04:50:10;;;;;;;3.42;1.38;;;;;15.90;100484.00;;;;4967712;28;20462;-71
2021/12/03 04:52:40;;;;;;;0.32;0.32;;;;;15.90;100502.00;;;;4967050;28;20133;-71
2021/12/03 04:55:10;;;;;;;0.00;0.00;;;;;15.90;100471.00;;;;4967521;28;20039;-70
2021/12/03 04:57:40;;;;;;;0.00;0.00;;;;;15.90;100478.00;;;;4967927;28;20055;-70
2021/12/03 05:00:13;;;;;;;0.00;0.00;;;;;15.80;100479.00;;;;4967229;28;20055;-70
2021/12/03 05:02:43;;;;;;;0.08;0.00;;;;;15.80;100470.00;;;;4971065;28;20042;-71
2021/12/03 05:05:15;;;;;;;0.00;0.00;;;;;15.90;100468.00;;;;4971582;28;20050;-70
2021/12/03 05:08:07;;;;;;;0.00;0.00;;;;;15.90;100467.00;;;;4971083;28;20050;-72
2021/12/03 05:10:40;;;;;;;0.00;0.00;;;;;15.90;100466.00;;;;4971710;28;20055;-72
2021/12/03 05:13:13;;;;;;;0.00;0.00;;;;;15.90;100464.00;;;;4971168;28;20097;-71
2021/12/03 05:15:45;;;;;;;2.00;0.90;;;;;15.90;100445.00;;;;4971152;28;20589;-71
2021/12/03 05:18:18;;;;;;;0.00;0.00;;;;;15.90;100467.00;;;;4954419;28;20055;-70
2021/12/03 05:20:52;;;;;;;0.00;0.00;;;;;15.80;100467.00;;;;4971615;28;20047;-71
2021/12/03 05:23:23;;;;;;;0.88;0.45;;;;;15.80;100465.00;;;;4971000;28;20121;-70
2021/12/03 05:25:54;;;;;;;0.00;0.00;;;;;15.90;100464.00;;;;4970824;28;20066;-71
2021/12/03 05:28:26;;;;;;;0.00;0.00;;;;;15.80;100460.00;;;;4970559;28;20129;-71
2021/12/03 05:30:57;;;;;;;0.00;0.00;;;;;15.80;100469.00;;;;4970626;28;20062;-71
2021/12/03 05:33:27;;;;;;;0.00;0.00;;;;;15.80;100465.00;;;;4971429;28;20087;-70
2021/12/03 05:35:57;;;;;;;0.00;0.00;;;;;15.80;100462.00;;;;4970919;28;20539;-71
2021/12/03 05:38:27;;;;;;;0.00;0.00;;;;;15.70;100467.00;;;;4970200;28;20488;-71
2021/12/03 05:40:57;;;;;;;0.00;0.00;;;;;15.50;100453.00;;;;4970295;28;20434;-71
2021/12/03 05:43:26;;;;;;;0.00;0.00;;;;;15.40;100440.00;;;;4970864;28;20086;-70
2021/12/03 05:45:56;;;;;;;0.00;0.00;;;;;15.60;100449.00;;;;4970551;28;20442;-70
2021/12/03 05:48:25;;;;;;;0.00;0.00;;;;;15.60;100438.00;;;;4968698;28;20081;-71
2021/12/03 05:50:54;;;;;;;0.00;0.00;;;;;15.50;100431.00;;;;4970016;28;20055;-72
2021/12/03 05:53:24;;;;;;;0.00;0.00;;;;;15.40;100442.00;;;;4970795;28;20503;-71
2021/12/03 05:55:53;;;;;;;0.00;0.00;;;;;15.20;100434.00;;;;4970528;28;20070;-71
2021/12/03 05:58:22;;;;;;;0.00;0.00;;;;;15.20;100405.00;;;;4969828;28;20051;-71
2021/12/03 06:00:53;;;;;;;0.00;0.00;;;;;15.20;100421.00;;;;4970321;28;20153;-71
2021/12/03 06:03:23;;;;;;;0.00;0.00;;;;;15.40;100417.00;;;;4969839;28;20094;-70
2021/12/03 06:05:52;;;;;;;0.28;0.28;;;;;15.50;100401.00;;;;4970358;28;20057;-71
2021/12/03 06:08:24;;;;;;;0.00;0.00;;;;;15.50;100424.00;;;;4970383;28;20054;-72
2021/12/03 06:10:53;;;;;;;0.00;0.00;;;;;15.60;100417.00;;;;4969133;28;20046;-71
2021/12/03 06:13:23;;;;;;;0.00;0.00;;;;;15.60;100416.00;;;;4969807;28;20042;-70
2021/12/03 06:16:11;;;;;;;0.00;0.00;;;;;15.70;100403.00;;;;4970102;28;20046;-70
2021/12/03 06:18:43;;;;;;;0.00;0.00;;;;;15.60;100404.00;;;;4953854;28;20059;-71
2021/12/03 06:21:14;;;;;;;;;;;;;15.60;100405.00;;;;4970517;28;20578;-69
2021/12/03 06:23:44;;;;;;;0.00;0.00;;;;;15.70;100416.00;;;;4970383;28;19988;-70
2021/12/03 06:26:14;;;;;;;0.00;0.00;;;;;15.70;100416.00;;;;4969489;28;20058;-71
2021/12/03 06:28:43;;;;;;;0.00;0.00;;;;;15.50;100400.00;;;;4969768;28;20691;-69
2021/12/03 06:31:13;;;;;;;0.00;0.00;;;;;15.40;100416.00;;;;4969280;28;20042;-71
2021/12/03 06:33:43;;;;;;;0.00;0.00;;;;;15.30;100408.00;;;;4969720;28;20058;-71
2021/12/03 06:36:12;;;;;;;0.10;0.10;;;;;15.40;100392.00;;;;4969423;28;20109;-70
2021/12/03 06:38:57;;;;;;;0.00;0.00;;;;;15.40;100402.00;;;;4967806;28;20062;-72
2021/12/03 06:41:39;;;;;;;1.80;0.32;;;;;15.50;100392.00;;;;4969628;28;20064;-71
2021/12/03 06:44:09;;;;;;;0.00;0.00;;;;;15.50;100388.00;;;;4969651;28;20038;-70
2021/12/03 06:46:39;;;;;;;0.55;0.30;;;;;15.60;100394.00;;;;4969266;28;20093;-70
2021/12/03 06:49:08;;;;;;;0.10;0.10;;;;;15.60;100405.00;;;;4967801;28;20057;-70
2021/12/03 06:51:42;;;;;;;0.00;0.00;;;;;15.70;100390.00;;;;4968963;28;20109;-70
2021/12/03 06:54:13;;;;;;;0.00;0.00;;;;;15.60;100411.00;;;;4969530;28;20097;-70
2021/12/03 06:56:48;;;;;;;0.00;0.00;;;;;15.60;100421.00;;;;4969521;28;20105;-71
2021/12/03 06:59:22;;;;;;;0.00;0.00;;;;;15.60;100413.00;;;;4969384;28;20054;-70
2021/12/03 07:01:53;;;;;;;0.00;0.00;;;;;15.60;100406.00;;;;4967936;28;20138;-71
2021/12/03 07:04:23;;;;;;;0.00;0.00;;;;;15.70;100409.00;;;;4968314;28;20101;-71
2021/12/03 07:06:52;;;;;;;0.00;0.00;;;;;15.80;100430.00;;;;4969086;28;20104;-72
2021/12/03 07:09:23;;;;;;;205.65;32.90;;;;;15.80;100425.00;;;;4968237;28;20579;-70
2021/12/03 07:11:52;;;;;;;0.00;0.00;;;;;15.80;100412.00;;;;4968907;28;20122;-72
2021/12/03 07:14:22;;;;;;;0.00;0.00;;;;;15.50;100433.00;;;;4968999;28;20046;-69
2021/12/03 07:16:57;;;;;;;0.00;0.00;;;;;15.30;100437.00;;;;4969491;28;20157;-69
2021/12/03 07:19:27;;;;;;;0.00;0.00;;;;;15.20;100416.00;;;;4967845;28;20082;-70
2021/12/03 07:21:56;;;;;;;0.00;0.00;;;;;15.10;100426.00;;;;4969060;28;20035;-70
2021/12/03 07:24:26;;;;;;;13.27;0.43;;;;;15.10;100453.00;;;;4966610;28;20534;-70
2021/12/03 07:26:55;;;;;;;0.08;0.03;;;;;15.10;100442.00;;;;4967770;28;20051;-69
2021/12/03 07:29:25;;;;;;;0.00;0.00;;;;;15.00;100449.00;;;;4968691;28;20054;-69
2021/12/03 07:31:54;;;;;;;0.00;0.00;;;;;14.90;100433.00;;;;4968571;28;20089;-71
2021/12/03 07:34:23;;;;;;;0.00;0.00;;;;;14.90;100438.00;;;;4968320;28;20046;-71
2021/12/03 07:36:53;;;;;;;0.00;0.00;;;;;14.80;100457.00;;;;4967896;28;20125;-71
2021/12/03 07:39:22;;;;;;;0.00;0.00;;;;;14.70;100435.00;;;;4951343;28;20055;-71
2021/12/03 07:41:52;;;;;;;0.00;0.00;;;;;14.60;100461.00;;;;4967186;28;20074;-70
2021/12/03 07:44:21;;;;;;;0.00;0.00;;;;;14.40;100450.00;;;;4968452;28;20102;-71
2021/12/03 07:47:04;;;;;;;0.00;0.00;;;;;14.20;100436.00;;;;4967176;28;20047;-70
2021/12/03 07:49:34;;;;;;;0.00;0.00;;;;;14.30;100477.00;;;;4968428;28;20074;-71
2021/12/03 07:52:03;;;;;;;0.00;0.00;;;;;14.30;100451.00;;;;4968156;28;20101;-69
2021/12/03 07:54:33;;;;;;;0.00;0.00;;;;;14.20;100473.00;;;;4968312;28;20462;-71
2021/12/03 07:57:02;;;;;;;0.00;0.00;;;;;14.10;100482.00;;;;4967903;28;20056;-71
2021/12/03 07:59:31;;;;;;;0.00;0.00;;;;;14.00;100457.00;;;;4968891;28;20054;-70
2021/12/03 08:02:01;;;;;;;0.00;0.00;;;;;13.90;100463.00;;;;4967644;28;20469;-71
2021/12/03 08:04:31;;;;;;;0.00;0.00;;;;;13.80;100479.00;;;;4968983;28;20043;-71
2021/12/03 08:07:01;;;;;;;0.00;0.00;;;;;13.80;100482.00;;;;4968124;28;20043;-70
2021/12/03 08:09:30;;;;;;;0.10;0.10;;;;;13.80;100480.00;;;;4968459;28;20141;-70
2021/12/03 08:11:59;;;;;;;0.00;0.00;;;;;13.80;100471.00;;;;4968071;28;20569;-70
2021/12/03 08:14:29;;;;;;;0.00;0.00;;;;;13.70;100459.00;;;;4967488;28;20074;-71
2021/12/03 08:16:58;;;;;;;0.00;0.00;;;;;13.70;100483.00;;;;4967658;28;20050;-70
2021/12/03 08:19:28;;;;;;;0.00;0.00;;;;;13.70;100462.00;;;;4967789;28;20430;-72
2021/12/03 08:21:57;;;;;;;0.00;0.00;;;;;13.60;100470.00;;;;4967785;28;20042;-69
2021/12/03 08:24:26;;;;;;;0.00;0.00;;;;;13.70;100483.00;;;;4967383;28;20038;-70
2021/12/03 08:26:56;;;;;;;0.00;0.00;;;;;13.80;100501.00;;;;4968305;28;20097;-70
2021/12/03 08:29:25;;;;;;;0.00;0.00;;;;;13.80;100498.00;;;;4967793;28;20054;-71
2021/12/03 08:31:55;;;;;;;0.00;0.00;;;;;13.70;100485.00;;;;4967981;28;20043;-70
2021/12/03 08:34:28;;;;;;;0.00;0.00;;;;;13.70;100503.00;;;;4967307;28;20181;-71
2021/12/03 08:36:59;;;;;;;0.00;0.00;;;;;13.70;100503.00;;;;4969416;28;20043;-71
2021/12/03 08:39:32;;;;;;;0.00;0.00;;;;;13.70;100491.00;;;;4971521;28;20562;-70
2021/12/03 08:42:02;;;;;;;0.00;0.00;;;;;13.80;100496.00;;;;4972079;28;20047;-70
2021/12/03 08:44:32;;;;;;;0.00;0.00;;;;;13.90;100513.00;;;;4971626;28;20074;-70
2021/12/03 08:47:07;;;;;;;0.00;0.00;;;;;14.00;100518.00;;;;4971684;28;20498;-71
2021/12/03 08:49:46;;;;;;;0.00;0.00;;;;;14.20;100521.00;;;;4972062;28;20066;-70
2021/12/03 08:55:02;;;;;;;0.00;0.00;;;;;14.40;100517.00;;;;4971571;28;20043;-71
2021/12/03 08:57:34;;;;;;;0.00;0.00;;;;;14.50;100532.00;;;;4971260;28;20109;-70
2021/12/03 09:00:11;;;;;;;0.00;0.00;;;;;14.60;100515.00;;;;4971301;28;20054;-71
2021/12/03 09:02:42;;;;;;;0.00;0.00;;;;;14.80;100536.00;;;;4971566;28;20122;-71
2021/12/03 09:05:13;;;;;;;0.00;0.00;;;;;15.00;100527.00;;;;4970999;28;20051;-70
2021/12/03 09:07:43;;;;;;;0.00;0.00;;;;;15.20;100548.00;;;;4954031;28;20058;-71
2021/12/03 09:10:21;;;;;;;0.00;0.00;;;;;15.40;100543.00;;;;4971595;28;20046;-71
2021/12/03 09:12:51;;;;;;;0.00;0.00;;;;;15.60;100518.00;;;;4971366;28;20097;-71
2021/12/03 09:15:28;;;;;;;0.00;0.00;;;;;15.70;100525.00;;;;4971858;28;20043;-70
2021/12/03 09:18:20;;;;;;;0.10;0.10;;;;;15.90;100525.00;;;;4971008;28;20510;-71
2021/12/03 09:21:08;;;;;;;1.98;0.10;;;;;16.20;100527.00;;;;4970590;28;20455;-70
2021/12/03 09:26:28;;;;;;;0.00;0.00;;;;;16.60;100531.00;;;;4966834;28;20120;-70
2021/12/03 09:29:03;;;;;;;0.03;0.00;;;;;16.60;100551.00;;;;4953109;28;20051;-70
2021/12/03 09:31:35;;;;;;;0.52;0.22;;;;;16.70;100526.00;;;;4970233;28;20069;-71
2021/12/03 09:34:10;;;;;;;0.00;0.00;;;;;16.90;100517.00;;;;4970731;28;20050;-71
2021/12/03 09:36:42;;;;;;;0.00;0.00;;;;;17.00;100528.00;;;;4969983;28;20418;-70
2021/12/03 09:39:17;;;;;;;0.00;0.00;;;;;17.10;100544.00;;;;4954048;28;20078;-71
2021/12/03 09:41:49;;;;;;;0.00;0.00;;;;;17.20;100523.00;;;;4969355;28;20035;-70
2021/12/03 09:44:30;;;;;;;0.00;0.00;;;;;17.30;100542.00;;;;4968035;28;20038;-71
2021/12/03 09:47:00;;;;;;;0.00;0.00;;;;;17.30;100533.00;;;;4969023;28;20054;-71
2021/12/03 09:49:41;;;;;;;0.00;0.00;;;;;17.60;100549.00;;;;4955062;28;20051;-70
2021/12/03 09:54:50;;;;;;;0.00;0.00;;;;;17.80;100541.00;;;;4969792;28;20121;-71
2021/12/03 10:00:33;;;;;;;0.00;0.00;;;;;18.40;100552.00;;;;4956494;28;20078;-72
2021/12/03 10:17:38;;;;;;;0.25;0.10;;;;;20.50;100543.00;;;;4969342;28;20042;-72
2021/12/03 10:46:30;;;;;;;0.05;0.03;;;;;21.10;100568.00;;;;4969684;28;20161;-72
2021/12/03 10:54:16;;;;;;;0.00;0.00;;;;;27.50;100410.00;;;;4969096;28;20046;-74
2021/12/03 11:08:11;;;;;;;0.00;0.00;;;;;31.70;100361.00;;;;4968078;28;20125;-73
2021/12/03 11:31:02;;;;;;;0.25;0.20;;;;;29.40;100371.00;;;;4956574;28;20051;-70
2021/12/03 11:34:06;;;;;;;0.00;0.00;;;;;29.80;100365.00;;;;4968436;28;20506;-72
2021/12/03 12:07:47;;;;;;;0.13;0.13;;;;;26.40;100567.00;;;;4966475;28;20062;-73
2021/12/03 12:10:02;;;;;;;3.50;1.13;;;;;26.90;100578.00;;;;4965135;28;20051;-71
2021/12/03 12:56:43;;;;;;;0.75;0.30;;;;;26.60;100561.00;;;;4967544;28;20486;-72
2021/12/03 13:07:52;;;;;;;0.13;0.13;;;;;27.00;100548.00;;;;4967212;28;20046;-70
2021/12/03 13:39:56;;;;;;;5.88;0.28;;;;;29.60;100513.00;;;;4970962;28;20101;-71
2021/12/03 14:04:53;;;;;;;3.10;0.43;;;;;29.00;100500.00;;;;4960328;28;20979;-73
2021/12/03 14:51:56;;;;;;;0.40;0.15;;;;;28.20;100486.00;;;;4947185;29;20039;-72
2021/12/03 14:54:46;;;;;;;0.00;0.00;;;;;29.60;100503.00;;;;4967585;28;20043;-75
2021/12/03 14:57:43;;;;;;;0.25;0.10;;;;;29.90;100430.00;;;;4969723;28;20039;-72
2021/12/03 15:03:54;;;;;;;0.85;0.63;;;;;30.80;100410.00;;;;4968477;28;20073;-74
2021/12/03 15:08:59;;;;;;;0.93;0.20;;;;;31.50;100423.00;;;;4967793;28;20065;-72
2021/12/03 15:20:15;;;;;;;0.00;0.00;;;;;31.00;100433.00;;;;4966304;28;20046;-72
2021/12/03 15:28:30;;;;;;;0.00;0.00;;;;;30.00;100399.00;;;;4967954;28;20060;-72
2021/12/03 15:31:17;;;;;;;0.15;0.08;;;;;31.00;100392.00;;;;4968796;28;20503;-74
2021/12/03 16:04:49;;;;;;;0.00;0.00;;;;;31.60;100365.00;;;;4968386;28;20035;-73
2021/12/03 16:23:37;;;;;;;0.10;0.10;;;;;31.80;100357.00;;;;4967152;28;20043;-74
2021/12/03 16:54:08;;;;;;;0.00;0.00;;;;;32.40;100344.00;;;;4966463;28;20608;-76
2021/12/03 16:56:48;;;;;;;0.10;0.10;;;;;32.70;100342.00;;;;4968599;28;20514;-73
2021/12/03 16:59:19;;;;;;;0.08;0.03;;;;;32.60;100331.00;;;;4971638;28;20125;-72
2021/12/03 17:15:52;;;;;;;0.68;0.57;;;;;33.40;100293.00;;;;4970900;28;20047;-75
2021/12/03 17:19:01;;;;;;;0.25;0.20;;;;;33.20;100308.00;;;;4970473;28;20125;-74
2021/12/03 17:56:47;;;;;;;0.10;0.10;;;;;34.30;100277.00;;;;4969987;28;20093;-75
2021/12/03 17:59:51;;;;;;;0.50;0.30;;;;;33.90;100272.00;;;;4970392;28;20042;-76
2021/12/03 18:02:23;;;;;;;0.57;0.30;;;;;35.00;100266.00;;;;4969371;28;20147;-74
2021/12/03 18:57:15;;;;;;;0.00;0.00;;;;;33.60;100265.00;;;;4968736;28;20050;-74
2021/12/03 18:59:58;;;;;;;0.10;0.10;;;;;32.20;100295.00;;;;4953450;28;20038;-72
2021/12/03 19:02:29;;;;;;;1.65;0.77;;;;;30.40;100306.00;;;;4968460;28;20046;-74
2021/12/03 19:05:07;;;;;;;0.70;0.35;;;;;28.80;100306.00;;;;4969367;28;20055;-73
2021/12/03 19:10:50;;;;;;;0.00;0.00;;;;;27.70;100307.00;;;;4968562;28;20130;-73
2021/12/03 19:13:33;;;;;;;0.00;0.00;;;;;27.70;100296.00;;;;4968988;28;20134;-74
2021/12/03 19:16:09;;;;;;;0.77;0.40;;;;;27.50;100309.00;;;;4952514;28;20071;-74
2021/12/03 19:18:45;;;;;;;3.72;0.55;;;;;27.00;100301.00;;;;4968023;28;20039;-75
2021/12/03 19:21:25;;;;;;;2.75;0.40;;;;;26.90;100317.00;;;;4966701;28;20050;-74
2021/12/03 19:24:01;;;;;;;3.17;1.17;;;;;26.50;100316.00;;;;4968759;28;20050;-71
2021/12/03 19:26:33;;;;;;;0.20;0.20;;;;;26.40;100261.00;;;;4969336;28;20103;-72
2021/12/03 19:29:04;;;;;;;0.60;0.52;;;;;26.10;100309.00;;;;4966960;28;20651;-73
2021/12/03 19:31:33;;;;;;;0.20;0.20;;;;;26.10;100301.00;;;;4968831;28;20051;-75
2021/12/03 19:34:03;;;;;;;0.05;0.05;;;;;27.00;100288.00;;;;4966981;28;20137;-73
2021/12/03 19:36:38;;;;;;;0.30;0.30;;;;;27.50;100264.00;;;;4968737;28;20446;-75
2021/12/03 19:39:11;;;;;;;0.00;0.00;;;;;27.40;100299.00;;;;4967475;28;20039;-74
2021/12/03 19:44:16;;;;;;;0.00;0.00;;;;;26.20;100299.00;;;;4965193;28;20144;-73
2021/12/03 19:46:49;;;;;;;0.00;0.00;;;;;26.30;100304.00;;;;4968213;28;20507;-74
2021/12/03 19:49:32;;;;;;;1.17;0.40;;;;;25.90;100316.00;;;;4968840;28;20046;-73
2021/12/03 19:52:20;;;;;;;28.98;1.40;;;;;25.70;100321.00;;;;4966697;28;20047;-75
2021/12/03 19:54:52;;;;;;;0.00;0.00;;;;;25.60;100307.00;;;;4967905;28;20070;-77
2021/12/03 19:57:23;;;;;;;0.40;0.40;;;;;25.30;100323.00;;;;4968191;28;20055;-76
2021/12/03 19:59:55;;;;;;;0.10;0.10;;;;;25.10;100322.00;;;;4968296;28;20050;-74
2021/12/03 20:02:25;;;;;;;;;;;;;25.00;100320.00;;;;4968707;28;20049;-73
2021/12/03 20:04:55;;;;;;;0.35;0.30;;;;;24.90;100307.00;;;;4967480;28;19922;-74
2021/12/03 20:07:25;;;;;;;0.20;0.20;;;;;25.20;100318.00;;;;4968074;28;20050;-72
2021/12/03 20:10:00;;;;;;;4.65;0.20;;;;;24.80;100311.00;;;;4967773;28;20054;-73
2021/12/03 20:12:31;;;;;;;0.40;0.20;;;;;24.60;100312.00;;;;4968080;28;20059;-73
2021/12/03 20:15:05;;;;;;;0.30;0.30;;;;;24.40;100333.00;;;;4968044;28;20058;-74
2021/12/03 20:17:53;;;;;;;1.85;0.32;;;;;24.40;100341.00;;;;4967964;28;20607;-74
2021/12/03 20:20:25;;;;;;;1.17;0.38;;;;;24.30;100324.00;;;;4967834;28;20054;-74
2021/12/03 20:25:49;;;;;;;0.30;0.03;;;;;24.10;100316.00;;;;4967602;28;20042;-74
2021/12/03 20:28:35;;;;;;;11.15;1.35;;;;;24.00;100316.00;;;;4967322;28;20054;-73
2021/12/03 20:31:07;;;;;;;0.10;0.10;;;;;23.90;100325.00;;;;4970488;28;20039;-73